Time,TemperatureF,DewpointF,PressureIn,WindDirection,WindDirectionDegrees,WindSpeedMPH,WindSpeedGustMPH,Humidity,HourlyPrecipIn,Conditions,Clouds,dailyrainin,SoftwareType,DateUTC
2013-08-09 00:15:00,61.2,52.0,29.92,South,175,1.0,5.0,72,0.00,,,0.00,weatherlink.com 1.10,2013-08-09 04:15:00,
2013-08-09 00:30:00,58.1,52.0,29.92,South,175,3.0,4.0,79,0.00,,,0.00,weatherlink.com 1.10,2013-08-09 04:30:00,
2013-08-09 00:45:00,57.7,52.0,29.92,SSE,162,3.0,5.0,80,0.00,,,0.00,weatherlink.com 1.10,2013-08-09 04:45:00,
2013-08-09 01:00:00,55.6,52.0,29.92,SE,139,5.0,6.0,87,0.00,,,0.00,weatherlink.com 1.10,2013-08-09 05:00:00,
2013-08-09 01:15:00,56.9,54.0,29.92,SE,142,6.0,9.0,91,0.00,,,0.00,weatherlink.com 1.10,2013-08-09 05:15:00,
2013-08-09 01:30:00,57.6,54.0,29.92,South,171,4.0,8.0,89,0.00,,,0.00,weatherlink.com 1.10,2013-08-09 05:30:00,
2013-08-09 01:46:00,57.7,54.0,29.92,South,188,1.0,5.0,87,0.00,,,0.00,weatherlink.com 1.10,2013-08-09 05:46:00,
2013-08-09 02:01:00,58.1,53.0,29.92,South,188,6.0,7.0,84,0.00,,,0.00,weatherlink.com 1.10,2013-08-09 06:01:00,
2013-08-09 02:16:00,59.5,52.0,29.92,SSW,198,4.0,7.0,77,0.00,,,0.00,weatherlink.com 1.10,2013-08-09 06:16:00,
2013-08-09 02:31:00,58.8,52.0,29.92,South,191,0.0,3.0,78,0.00,,,0.00,weatherlink.com 1.10,2013-08-09 06:31:00,
2013-08-09 02:46:00,59.3,52.0,29.92,South,191,0.0,2.0,77,0.00,,,0.00,weatherlink.com 1.10,2013-08-09 06:46:00,
2013-08-09 03:01:00,59.6,52.0,29.92,South,191,2.0,2.0,76,0.00,,,0.00,weatherlink.com 1.10,2013-08-09 07:01:00,
2013-08-09 03:16:00,59.6,52.0,29.91,SW,218,2.0,5.0,77,0.00,,,0.00,weatherlink.com 1.10,2013-08-09 07:16:00,
2013-08-09 03:31:00,59.7,52.0,29.91,SW,215,4.0,5.0,77,0.00,,,0.00,weatherlink.com 1.10,2013-08-09 07:31:00,
2013-08-09 03:46:00,60.8,53.0,29.91,SW,215,5.0,6.0,75,0.00,,,0.00,weatherlink.com 1.10,2013-08-09 07:46:00,
2013-08-09 04:01:00,59.3,53.0,29.91,SW,219,3.0,4.0,79,0.00,,,0.00,weatherlink.com 1.10,2013-08-09 08:01:00,
2013-08-09 04:16:00,58.1,53.0,29.90,WSW,251,2.0,4.0,83,0.00,,,0.00,weatherlink.com 1.10,2013-08-09 08:16:00,
2013-08-09 04:31:00,57.8,53.0,29.90,WSW,250,3.0,5.0,84,0.00,,,0.00,weatherlink.com 1.10,2013-08-09 08:31:00,
2013-08-09 04:46:00,57.6,53.0,29.90,SSW,201,6.0,6.0,84,0.00,,,0.00,weatherlink.com 1.10,2013-08-09 08:46:00,
2013-08-09 05:01:00,58.0,52.0,29.90,SSW,206,2.0,7.0,81,0.00,,,0.00,weatherlink.com 1.10,2013-08-09 09:01:00,
2013-08-09 05:16:00,57.1,52.0,29.90,SSW,213,2.0,4.0,84,0.00,,,0.00,weatherlink.com 1.10,2013-08-09 09:16:00,
2013-08-09 05:31:00,57.2,53.0,29.89,SSW,212,6.0,6.0,85,0.00,,,0.00,weatherlink.com 1.10,2013-08-09 09:31:00,
2013-08-09 05:46:00,56.9,53.0,29.89,SSW,205,4.0,5.0,85,0.00,,,0.00,weatherlink.com 1.10,2013-08-09 09:46:00,
2013-08-09 06:01:00,58.9,53.0,29.89,SSW,201,4.0,7.0,81,0.00,,,0.00,weatherlink.com 1.10,2013-08-09 10:01:00,
2013-08-09 06:16:00,58.1,53.0,29.89,SSW,207,4.0,7.0,83,0.00,,,0.00,weatherlink.com 1.10,2013-08-09 10:16:00,
2013-08-09 06:31:00,57.7,53.0,29.89,SSW,205,6.0,7.0,85,0.00,,,0.00,weatherlink.com 1.10,2013-08-09 10:31:00,
2013-08-09 06:46:00,58.1,54.0,29.89,SW,223,5.0,7.0,87,0.00,,,0.00,weatherlink.com 1.10,2013-08-09 10:46:00,
2013-08-09 07:01:00,57.8,54.0,29.89,SSW,195,7.0,7.0,88,0.00,,,0.00,weatherlink.com 1.10,2013-08-09 11:01:00,
2013-08-09 07:16:00,58.8,55.0,29.89,SW,221,4.0,9.0,87,0.00,,,0.00,weatherlink.com 1.10,2013-08-09 11:16:00,
2013-08-09 07:31:00,59.3,56.0,29.89,SW,218,2.0,6.0,87,0.00,,,0.00,weatherlink.com 1.10,2013-08-09 11:31:00,
2013-08-09 07:46:00,59.5,55.0,29.89,SW,218,4.0,6.0,86,0.00,,,0.00,weatherlink.com 1.10,2013-08-09 11:46:00,
2013-08-09 08:01:00,60.8,56.0,29.88,SW,227,4.0,8.0,85,0.00,,,0.00,weatherlink.com 1.10,2013-08-09 12:01:00,
2013-08-09 08:16:00,61.3,57.0,29.89,SW,218,3.0,9.0,84,0.00,,,0.00,weatherlink.com 1.10,2013-08-09 12:16:00,
2013-08-09 08:31:00,62.2,56.0,29.88,SW,234,4.0,10.0,81,0.00,,,0.00,weatherlink.com 1.10,2013-08-09 12:31:00,
2013-08-09 08:46:00,62.7,57.0,29.88,SW,229,10.0,13.0,81,0.00,,,0.00,weatherlink.com 1.10,2013-08-09 12:46:00,
2013-08-09 09:01:00,62.6,57.0,29.88,SW,220,6.0,11.0,83,0.00,,,0.00,weatherlink.com 1.10,2013-08-09 13:01:00,
2013-08-09 09:16:00,63.5,58.0,29.88,WSW,241,10.0,15.0,81,0.00,,,0.00,weatherlink.com 1.10,2013-08-09 13:16:00,
2013-08-09 09:31:00,64.0,58.0,29.87,SW,232,7.0,12.0,80,0.00,,,0.00,weatherlink.com 1.10,2013-08-09 13:31:00,
2013-08-09 09:46:00,65.1,57.0,29.87,West,273,6.0,15.0,76,0.00,,,0.00,weatherlink.com 1.10,2013-08-09 13:46:00,
2013-08-09 10:01:00,65.3,58.0,29.87,West,272,10.0,12.0,77,0.00,,,0.00,weatherlink.com 1.10,2013-08-09 14:01:00,
2013-08-09 10:16:00,66.1,59.0,29.87,WSW,247,9.0,11.0,77,0.00,,,0.00,weatherlink.com 1.10,2013-08-09 14:16:00,
2013-08-09 10:31:00,66.9,59.0,29.87,WSW,248,9.0,11.0,75,0.00,,,0.00,weatherlink.com 1.10,2013-08-09 14:31:00,
2013-08-09 10:46:00,68.0,58.0,29.86,West,273,13.0,15.0,70,0.00,,,0.00,weatherlink.com 1.10,2013-08-09 14:46:00,
2013-08-09 11:01:00,69.0,58.0,29.86,WNW,296,6.0,15.0,67,0.00,,,0.00,weatherlink.com 1.10,2013-08-09 15:01:00,
2013-08-09 11:16:00,69.4,56.0,29.86,West,262,10.0,19.0,63,0.00,,,0.00,weatherlink.com 1.10,2013-08-09 15:16:00,
2013-08-09 11:31:00,69.1,58.0,29.86,SW,232,9.0,15.0,67,0.00,,,0.00,weatherlink.com 1.10,2013-08-09 15:31:00,
2013-08-09 11:47:00,69.9,59.0,29.85,West,261,8.0,18.0,69,0.00,,,0.00,weatherlink.com 1.10,2013-08-09 15:47:00,
2013-08-09 12:02:00,70.3,57.0,29.84,WSW,237,17.0,21.0,64,0.00,,,0.00,weatherlink.com 1.10,2013-08-09 16:02:00,
2013-08-09 12:17:00,71.4,59.0,29.84,West,263,13.0,18.0,64,0.00,,,0.00,weatherlink.com 1.10,2013-08-09 16:17:00,
2013-08-09 12:32:00,71.3,58.0,29.84,WSW,243,11.0,24.0,64,0.00,,,0.00,weatherlink.com 1.10,2013-08-09 16:32:00,
2013-08-09 12:47:00,71.4,59.0,29.84,SW,225,10.0,21.0,65,0.00,,,0.00,weatherlink.com 1.10,2013-08-09 16:47:00,
2013-08-09 13:02:00,70.0,59.0,29.84,West,281,14.0,24.0,69,0.00,,,0.00,weatherlink.com 1.10,2013-08-09 17:02:00,
2013-08-09 13:17:00,70.1,60.0,29.85,WNW,286,13.0,27.0,71,0.00,,,0.00,weatherlink.com 1.10,2013-08-09 17:17:00,
2013-08-09 13:32:00,68.9,60.0,29.85,WNW,284,13.0,20.0,74,0.00,,,0.00,weatherlink.com 1.10,2013-08-09 17:32:00,
2013-08-09 13:47:00,69.9,61.0,29.85,West,269,15.0,25.0,74,0.00,,,0.00,weatherlink.com 1.10,2013-08-09 17:47:00,
2013-08-09 14:02:00,68.6,62.0,29.85,NW,306,16.0,23.0,78,0.00,,,0.00,weatherlink.com 1.10,2013-08-09 18:02:00,
2013-08-09 14:17:00,68.9,61.0,29.85,WNW,286,19.0,24.0,76,0.00,,,0.00,weatherlink.com 1.10,2013-08-09 18:17:00,
2013-08-09 14:32:00,69.7,60.0,29.85,West,264,13.0,24.0,70,0.00,,,0.00,weatherlink.com 1.10,2013-08-09 18:32:00,
2013-08-09 14:47:00,68.9,61.0,29.85,WNW,282,16.0,24.0,76,0.00,,,0.00,weatherlink.com 1.10,2013-08-09 18:47:00,
2013-08-09 15:02:00,69.6,62.0,29.85,NW,306,15.0,21.0,76,0.00,,,0.00,weatherlink.com 1.10,2013-08-09 19:02:00,
2013-08-09 15:17:00,69.9,61.0,29.84,WNW,284,16.0,23.0,73,0.00,,,0.00,weatherlink.com 1.10,2013-08-09 19:17:00,
2013-08-09 15:32:00,69.7,61.0,29.85,WNW,285,15.0,23.0,73,0.00,,,0.00,weatherlink.com 1.10,2013-08-09 19:32:00,
2013-08-09 15:47:00,70.4,61.0,29.85,WNW,286,15.0,24.0,71,0.00,,,0.00,weatherlink.com 1.10,2013-08-09 19:47:00,
2013-08-09 16:02:00,69.7,60.0,29.85,West,276,23.0,23.0,71,0.00,,,0.00,weatherlink.com 1.10,2013-08-09 20:02:00,
2013-08-09 16:17:00,70.2,61.0,29.86,WNW,288,13.0,22.0,72,0.00,,,0.00,weatherlink.com 1.10,2013-08-09 20:17:00,
2013-08-09 16:32:00,70.2,60.0,29.86,WNW,289,13.0,24.0,71,0.00,,,0.00,weatherlink.com 1.10,2013-08-09 20:32:00,
2013-08-09 16:47:00,70.1,62.0,29.86,NW,312,10.0,26.0,75,0.00,,,0.00,weatherlink.com 1.10,2013-08-09 20:47:00,
2013-08-09 17:02:00,70.4,62.0,29.86,NW,307,19.0,21.0,75,0.00,,,0.00,weatherlink.com 1.10,2013-08-09 21:02:00,
2013-08-09 17:17:00,69.9,62.0,29.87,WNW,302,13.0,21.0,76,0.00,,,0.00,weatherlink.com 1.10,2013-08-09 21:17:00,
2013-08-09 17:32:00,70.1,63.0,29.88,WNW,283,13.0,18.0,77,0.00,,,0.00,weatherlink.com 1.10,2013-08-09 21:32:00,
2013-08-09 17:47:00,70.1,62.0,29.88,NW,325,13.0,22.0,76,0.00,,,0.00,weatherlink.com 1.10,2013-08-09 21:47:00,
2013-08-09 18:02:00,70.4,60.0,29.88,WNW,295,9.0,19.0,70,0.00,,,0.00,weatherlink.com 1.10,2013-08-09 22:02:00,
2013-08-09 18:17:00,70.1,60.0,29.88,NNW,334,8.0,18.0,70,0.00,,,0.00,weatherlink.com 1.10,2013-08-09 22:17:00,
2013-08-09 18:32:00,69.5,59.0,29.88,WNW,298,12.0,15.0,69,0.00,,,0.00,weatherlink.com 1.10,2013-08-09 22:32:00,
2013-08-09 18:47:00,69.9,58.0,29.89,NNW,343,15.0,19.0,66,0.00,,,0.00,weatherlink.com 1.10,2013-08-09 22:47:00,
2013-08-09 19:02:00,69.7,58.0,29.89,North,5,12.0,21.0,66,0.00,,,0.00,weatherlink.com 1.10,2013-08-09 23:02:00,
2013-08-09 19:17:00,68.8,57.0,29.89,North,355,13.0,18.0,67,0.00,,,0.00,weatherlink.com 1.10,2013-08-09 23:17:00,
2013-08-09 19:32:00,68.1,57.0,29.90,North,9,12.0,20.0,68,0.00,,,0.00,weatherlink.com 1.10,2013-08-09 23:32:00,
2013-08-09 19:47:00,67.0,57.0,29.91,NNE,24,17.0,22.0,70,0.00,,,0.00,weatherlink.com 1.10,2013-08-09 23:47:00,
2013-08-09 20:02:00,66.2,56.0,29.92,North,5,10.0,21.0,70,0.00,,,0.00,weatherlink.com 1.10,2013-08-10 00:02:00,
2013-08-09 20:17:00,64.9,56.0,29.92,NNE,13,12.0,20.0,73,0.00,,,0.00,weatherlink.com 1.10,2013-08-10 00:17:00,
2013-08-09 20:32:00,64.7,55.0,29.93,NNE,19,19.0,19.0,72,0.00,,,0.00,weatherlink.com 1.10,2013-08-10 00:32:00,
2013-08-09 20:47:00,64.5,55.0,29.93,North,11,11.0,18.0,72,0.00,,,0.00,weatherlink.com 1.10,2013-08-10 00:47:00,
2013-08-09 21:02:00,64.2,55.0,29.94,NE,49,11.0,19.0,73,0.00,,,0.00,weatherlink.com 1.10,2013-08-10 01:02:00,
2013-08-09 21:17:00,63.8,56.0,29.94,North,5,11.0,19.0,75,0.00,,,0.00,weatherlink.com 1.10,2013-08-10 01:17:00,
2013-08-09 21:32:00,63.4,55.0,29.95,North,360,16.0,19.0,74,0.00,,,0.00,weatherlink.com 1.10,2013-08-10 01:32:00,
2013-08-09 22:02:00,62.5,54.0,29.96,NNE,31,14.0,17.0,74,0.00,,,0.00,weatherlink.com 1.10,2013-08-10 02:02:00,
2013-08-09 22:17:00,62.2,54.0,29.97,North,11,12.0,16.0,74,0.00,,,0.00,weatherlink.com 1.10,2013-08-10 02:17:00,
2013-08-09 22:32:00,61.8,52.0,29.97,North,11,14.0,18.0,71,0.00,,,0.00,weatherlink.com 1.10,2013-08-10 02:32:00,
2013-08-09 22:47:00,61.4,52.0,29.98,NE,44,11.0,17.0,71,0.00,,,0.00,weatherlink.com 1.10,2013-08-10 02:47:00,
2013-08-09 23:02:00,61.3,51.0,29.98,NE,44,8.0,16.0,70,0.00,,,0.00,weatherlink.com 1.10,2013-08-10 03:02:00,
2013-08-09 23:17:00,60.9,50.0,29.98,NE,41,7.0,14.0,67,0.00,,,0.00,weatherlink.com 1.10,2013-08-10 03:17:00,
2013-08-09 23:32:00,60.9,49.0,29.98,ENE,67,7.0,14.0,66,0.00,,,0.00,weatherlink.com 1.10,2013-08-10 03:32:00,
2013-08-09 23:47:00,60.2,50.0,29.98,ENE,69,3.0,6.0,68,0.00,,,0.00,weatherlink.com 1.10,2013-08-10 03:47:00,